Welcome to our Virtual Airline
Sign-in:

Flight MFC33851

  • Submitted By: Georg Werderitsch
  • Departure Airport: Juneau Intl (PAJN)
  • Arrival Airport: Skagway (PAGY)
  • Aircraft: BELL 206 (N040MM)
  • Flight Time: 00.54.30
  • Date Submitted: 2019/02/21
  • Route: STOP-OVER AT HAINES (PAHN)
  • Status: Accepted
Flight Details
Gross Revenue:
(10 load / $ 81.00 per unit
$ 810.00
Fuel Cost:
(74.8427 fuel used @ 5.1 / unit)
$ 381.70

Additional Log Information:

View Log

FS[08:47] ----- Flight Opened -----
FS[08:47] Cigar Box - 1.1.4.0
FS[08:47] FS: FSX
FS[08:47] FSUIPC: v4,973
FS[08:47] Flight Number: MFC33851
FS[08:47] FS Aircraft: Dodosim 206 FSX N2061MM BWEP Utility
FS[08:47] FS Model: helicopter
FS[08:47] FS Type: JetRanger
FS[08:47] Departure: PAJN
FS[08:47] Arrival: PAGY
FS[08:47] Flight Level: 2500
FS[08:47] Flight Type: H
FS[08:47] Passengers: 10
FS[08:47] FOB: 608 lbs
FS[08:47] Gate: n/a
FS[08:47] NOTE: Parking Brake Ignored
FS[08:47] Crash Detection: Disabled
FS[08:47] Crash Detection Aircraft: Disabled
FS[08:47] Engines: 1 Helo
FS[08:47] NOTE: Boarding has started
FS[08:47] Engine 1: Started
FS[08:47] Light Data: Beacon ON
FS[08:47] Main Door Closed
FS[08:47] COM1: 128.30
FS[08:47] COM2: 127.80
FS[08:47] Transponder: 1200
FS[08:47] NAV1: 113.70
FS[08:47] NAV2: 110.60
FS[08:47] ADF1: 284.0
FS[08:47] ADF2: 240.0
FS[08:47] Navigation Mode: NAV
FS[08:48] NOTE: Taxi started
FS[08:48] NOTE: ----- TAKE OFF -----
FS[08:48] GS: 31 knots
FS[08:48] TAS: 28 knots
FS[08:48] IAS: 28 knots
FS[08:48] VS: 1257 fpm
FS[08:48] FOB: 606 lbs
FS[08:48] Heading: 326°
FS[08:48] Pitch: 9°
FS[08:48] Bank: 6°
FS[08:48] Aircraft Weight: 2737,50 lbs
FS[08:48] Nearest Airport: PAJ1
FS[08:48] Distance: 0,24 miles
FS[08:48] Runway: ???
FS[08:48] Ground Surface: Forest
FS[08:48] Ground Condition: Normal
FS[08:48] NOTE: Weather Report
FS[08:48] Wind Heading: 337°
FS[08:48] Wind Speed: 0 knots
FS[08:48] OAT: 14° C
FS[08:48] TAT: 14° C
FS[08:48] Precipitation: None
FS[08:48] Dew Point: 4° C
FS[08:48] Visibility: 62 miles
FS[08:48] METAR: PAJN 210353Z 08006KT 10SM BKN070 OVC150 01/M01 A3016 RMK AO2 SLP212 FEW BINOVC T00111011
FS[08:48] NOTE: Climb started
FS[08:48] View Mode: Virtual Cockpit
FS[08:30] NOTE: ----- LANDED -----
FS[08:30] Landing Rate: -96,12 fpm
FS[08:30] GS: 1 knots
FS[08:30] TAS: 2 knots
FS[08:30] IAS: 2 knots
FS[08:30] VS: -86 fpm
FS[08:30] FOB: 479 lbs
FS[08:30] Heading: 99°
FS[08:30] Pitch: 0°
FS[08:30] Bank: 3°
FS[08:30] Aircraft Weight: 2476,33 lbs
FS[08:30] Nearest Airport: PAHN
FS[08:30] Distance: 0,10 miles
FS[08:30] Runway: ???
FS[08:30] Ground Surface: Concrete
FS[08:30] Ground Condition: Normal
FS[08:30] NOTE: Weather Report
FS[08:30] Wind Heading: 336°
FS[08:30] Wind Speed: 0 knots
FS[08:30] OAT: 14° C
FS[08:30] TAT: 14° C
FS[08:30] Precipitation: None
FS[08:30] Dew Point: 4° C
FS[08:30] Visibility: 62 miles
FS[08:30] METAR: PAGY 210353Z AUTO 05003KT 10SM OVC060 M02/M07 A3013 RMK AO2 SLP203 T10171067 TSNO
FS[08:30] View Mode: Virtual Cockpit
FS[08:30] NOTE: Taxi started
FS[08:31] View Mode: Virtual Cockpit
FS[08:42] NOTE: ----- LANDED -----
FS[08:42] Landing Rate: -181,47 fpm
FS[08:42] GS: 0 knots
FS[08:42] TAS: 0 knots
FS[08:42] IAS: 0 knots
FS[08:42] VS: -181 fpm
FS[08:42] FOB: 444 lbs
FS[08:42] Heading: 12°
FS[08:42] Pitch: 2°
FS[08:42] Bank: 0°
FS[08:42] Aircraft Weight: 2440,90 lbs
FS[08:42] Nearest Airport: PAGY
FS[08:42] Distance: 0,29 miles
FS[08:42] Runway: 2 - PAGY
FS[08:42] Ground Surface: Asphalt
FS[08:42] Ground Condition: Normal
FS[08:42] NOTE: Weather Report
FS[08:42] Wind Heading: 336°
FS[08:42] Wind Speed: 0 knots
FS[08:42] OAT: 14° C
FS[08:42] TAT: 14° C
FS[08:42] Precipitation: None
FS[08:42] Dew Point: 4° C
FS[08:42] Visibility: 62 miles
FS[08:42] METAR: PAGY 210353Z AUTO 05003KT 10SM OVC060 M02/M07 A3013 RMK AO2 SLP203 T10171067 TSNO
FS[08:42] View Mode: Virtual Cockpit
FS[08:42] Gate: n/a
FS[08:42] NOTE: Flight Completed
FS[08:42] FS Aircraft: Dodosim 206 FSX N2061MM BWEP Utility
FS[08:42] FS Model: helicopter
FS[08:42] FS Type: JetRanger
FS[08:42] FOB: 444 lbs
FS[08:42] Fuel Used: 165 lbs
FS[08:42] Flight Time: 00:54:30
FS[08:42] Flight Time (Dawn): 00:00:00
FS[08:42] Flight Time (Day): 00:54:30
FS[08:42] Flight Time (Dusk): 00:00:00
FS[08:42] Flight Time (Night): 00:00:00
FS[08:42] Total Landings: 2
FS[08:42] MaxSim Rate: 0x
FS[08:42] Cigar Box - 1.1.4.0
FS[08:42] ----- Flight Closed -----

Route Map